createdAt,value
2023-05-15T00:00:46.027Z,52032.77
2023-05-15T00:03:17.983Z,52023.13
2023-05-15T00:05:49.524Z,52027.54
2023-05-15T00:08:21.516Z,52030.76
2023-05-15T00:11:00.616Z,52017.10
2023-05-15T00:13:33.367Z,52025.94
2023-05-15T00:16:04.985Z,52032.77
2023-05-15T00:18:36.470Z,52025.53
2023-05-15T00:21:07.901Z,52041.21
2023-05-15T00:23:39.461Z,52029.15
2023-05-15T00:26:11.302Z,52034.37
2023-05-15T00:28:42.809Z,52025.13
2023-05-15T00:31:15.883Z,52033.57
2023-05-15T00:33:48.049Z,52043.21
2023-05-15T00:36:22.474Z,52035.98
2023-05-15T00:38:56.018Z,52025.13
2023-05-15T00:41:32.348Z,52037.19
2023-05-15T00:44:04.193Z,52042.01
2023-05-15T00:46:36.264Z,52050.04
2023-05-15T00:49:13.752Z,52025.93
2023-05-15T00:51:45.321Z,52046.43
2023-05-15T00:54:16.686Z,52036.79
2023-05-15T00:56:48.013Z,52033.57
2023-05-15T00:59:21.203Z,52024.73
2023-05-15T01:01:52.542Z,52031.16
2023-05-15T01:04:23.978Z,52040.00
2023-05-15T01:06:57.129Z,52046.43
2023-05-15T01:09:29.048Z,52033.17
2023-05-15T01:12:00.594Z,52047.63
2023-05-15T01:14:31.973Z,52031.56
2023-05-15T01:17:04.023Z,52051.25
2023-05-15T01:19:38.943Z,52035.58
2023-05-15T01:22:27.592Z,52027.54
2023-05-15T01:25:15.681Z,52054.46
2023-05-15T01:27:47.829Z,52054.07
2023-05-15T01:30:22.752Z,52044.82
2023-05-15T01:32:57.008Z,52069.73
2023-05-15T01:35:31.324Z,52054.87
2023-05-15T01:38:10.616Z,52046.02
2023-05-15T01:40:42.092Z,52036.38
2023-05-15T01:43:17.162Z,52051.25
2023-05-15T01:45:48.574Z,52069.34
2023-05-15T01:48:19.870Z,52080.99
2023-05-15T01:50:51.339Z,52048.84
2023-05-15T01:53:23.118Z,52045.23
2023-05-15T01:55:56.718Z,52054.46
2023-05-15T01:58:28.291Z,52053.66
2023-05-15T02:00:59.721Z,52054.47
2023-05-15T02:03:31.322Z,52047.23
2023-05-15T02:06:01.283Z,52058.09
2023-05-15T02:08:32.681Z,52060.09
2023-05-15T02:11:04.249Z,52063.71
2023-05-15T02:13:35.760Z,52079.78
2023-05-15T02:16:07.920Z,52046.84
2023-05-15T02:18:39.578Z,52068.13
2023-05-15T02:21:10.931Z,52063.71
2023-05-15T02:23:42.307Z,52069.73
2023-05-15T02:26:22.248Z,52054.07
2023-05-15T02:28:59.727Z,52063.30
2023-05-15T02:31:35.199Z,52037.19
2023-05-15T02:34:10.785Z,52033.17
2023-05-15T02:36:43.603Z,52058.48
2023-05-15T02:39:14.903Z,52056.88
2023-05-15T02:41:46.322Z,52045.63
2023-05-15T02:44:18.063Z,52058.09
2023-05-15T02:46:47.871Z,52060.49
2023-05-15T02:49:19.280Z,52064.91
2023-05-15T02:51:50.905Z,52057.28
2023-05-15T02:54:22.478Z,52058.89
2023-05-15T02:56:53.930Z,52060.09
2023-05-15T02:59:25.370Z,52060.49
2023-05-15T03:01:56.863Z,52058.88
2023-05-15T03:04:28.339Z,52067.32
2023-05-15T03:06:59.775Z,52068.93
2023-05-15T03:09:31.268Z,52056.48
2023-05-15T03:12:02.747Z,52067.32
2023-05-15T03:14:34.254Z,52056.07
2023-05-15T03:17:06.064Z,52072.55
2023-05-15T03:19:35.873Z,52060.89
2023-05-15T03:22:07.585Z,52059.69
2023-05-15T03:24:39.422Z,52055.27
2023-05-15T03:27:09.349Z,52060.09
2023-05-15T03:29:41.280Z,52065.32
2023-05-15T03:32:13.087Z,52043.62
2023-05-15T03:34:45.024Z,52044.02
2023-05-15T03:37:16.547Z,52038.79
2023-05-15T03:39:47.984Z,52049.64
2023-05-15T03:42:23.734Z,52042.41
2023-05-15T03:44:56.367Z,52048.04
2023-05-15T03:47:28.044Z,52032.77
2023-05-15T03:49:59.928Z,52047.63
2023-05-15T03:52:29.774Z,52033.57
2023-05-15T03:55:01.237Z,52036.38
2023-05-15T03:57:33.533Z,52037.99
2023-05-15T04:00:10.463Z,52027.95
2023-05-15T04:02:44.783Z,52030.76
2023-05-15T04:05:16.301Z,52038.39
2023-05-15T04:07:46.214Z,52033.57
2023-05-15T04:10:17.881Z,52040.80
2023-05-15T04:12:48.046Z,52025.54
2023-05-15T04:15:20.206Z,52029.55
2023-05-15T04:17:53.165Z,52034.77
2023-05-15T04:20:25.497Z,52033.17
2023-05-15T04:22:57.053Z,52025.53
2023-05-15T04:25:28.689Z,52027.54
2023-05-15T04:27:58.573Z,52032.37
2023-05-15T04:30:30.061Z,52021.52
2023-05-15T04:33:01.490Z,52025.13
2023-05-15T04:35:31.381Z,52018.70
2023-05-15T04:38:03.567Z,52029.15
2023-05-15T04:40:35.018Z,52020.31
2023-05-15T04:43:06.636Z,52021.12
2023-05-15T04:45:36.376Z,52017.09
2023-05-15T04:48:08.564Z,52023.93
2023-05-15T04:50:40.179Z,52013.88
2023-05-15T04:53:10.067Z,52008.66
2023-05-15T04:55:41.504Z,51997.01
2023-05-15T04:58:13.025Z,52008.25
2023-05-15T05:00:44.313Z,51999.82
2023-05-15T05:03:15.889Z,52016.70
2023-05-15T05:05:45.853Z,52016.70
2023-05-15T05:08:17.110Z,51987.76
2023-05-15T05:10:48.495Z,51992.98
2023-05-15T05:13:19.889Z,51999.01
2023-05-15T05:15:51.307Z,51989.77
2023-05-15T05:18:22.626Z,51971.69
2023-05-15T05:20:54.043Z,51979.32
2023-05-15T05:23:25.359Z,51986.96
2023-05-15T05:25:56.837Z,51981.73
2023-05-15T05:28:28.365Z,51974.10
2023-05-15T05:30:59.806Z,51981.33
2023-05-15T05:33:31.122Z,51971.69
2023-05-15T05:36:02.627Z,51986.96
2023-05-15T05:38:34.173Z,51978.12
2023-05-15T05:41:05.660Z,51984.54
2023-05-15T05:43:37.285Z,51978.12
2023-05-15T05:46:09.073Z,51972.89
2023-05-15T05:48:38.767Z,51966.46
2023-05-15T05:51:10.192Z,51958.43
2023-05-15T05:53:41.636Z,51968.87
2023-05-15T05:56:13.407Z,51976.91
2023-05-15T05:58:44.873Z,51938.74
2023-05-15T06:01:16.711Z,51932.71
2023-05-15T06:03:48.267Z,51958.02
2023-05-15T06:06:18.209Z,51925.88
2023-05-15T06:08:49.893Z,51939.95
2023-05-15T06:11:23.717Z,51940.74
2023-05-15T06:13:56.925Z,51943.16
2023-05-15T06:16:28.540Z,51909.41
2023-05-15T06:18:58.441Z,51929.50
2023-05-15T06:21:29.860Z,51911.82
2023-05-15T06:24:01.223Z,51911.01
2023-05-15T06:26:32.677Z,51898.16
2023-05-15T06:29:04.340Z,51886.50
2023-05-15T06:31:34.144Z,51890.52
2023-05-15T06:34:05.589Z,51894.54
2023-05-15T06:36:37.007Z,51875.65
2023-05-15T06:39:10.866Z,51873.24
2023-05-15T06:41:42.318Z,51855.96
2023-05-15T06:44:16.512Z,51870.02
2023-05-15T06:46:46.463Z,51843.50
2023-05-15T06:49:18.068Z,51854.76
2023-05-15T06:51:49.469Z,51840.29
2023-05-15T06:54:20.850Z,51844.71
2023-05-15T06:56:52.413Z,51836.27
2023-05-15T06:59:23.775Z,51834.66
2023-05-15T07:01:56.244Z,51828.23
2023-05-15T07:04:28.056Z,51826.23
2023-05-15T07:06:59.513Z,51814.17
2023-05-15T07:09:31.169Z,51826.63
2023-05-15T07:12:00.948Z,51819.39
2023-05-15T07:14:32.418Z,51811.76
2023-05-15T07:17:04.496Z,51794.48
2023-05-15T07:19:34.462Z,51807.34
2023-05-15T07:22:06.405Z,51796.89
2023-05-15T07:24:40.455Z,51776.80
2023-05-15T07:27:12.318Z,51766.76
2023-05-15T07:29:44.069Z,51770.38
2023-05-15T07:32:16.333Z,51775.60
2023-05-15T07:34:48.201Z,51763.14
2023-05-15T07:37:19.626Z,51767.56
2023-05-15T07:39:51.237Z,51746.67
2023-05-15T07:42:21.017Z,51760.73
2023-05-15T07:44:52.852Z,51757.51
2023-05-15T07:47:24.233Z,51742.24
2023-05-15T07:49:56.102Z,51752.29
2023-05-15T07:52:27.563Z,51735.82
2023-05-15T07:54:59.371Z,51745.46
2023-05-15T07:57:32.124Z,51744.66
2023-05-15T08:00:10.553Z,51736.62
2023-05-15T08:02:46.527Z,51743.05
2023-05-15T08:05:19.005Z,51726.18
2023-05-15T08:07:50.394Z,51722.55
2023-05-15T08:10:21.903Z,51722.56
2023-05-15T08:12:53.290Z,51733.80
2023-05-15T08:15:25.522Z,51711.71
2023-05-15T08:17:57.224Z,51721.76
2023-05-15T08:20:28.980Z,51714.93
2023-05-15T08:23:00.278Z,51712.91
2023-05-15T08:25:31.748Z,51707.29
2023-05-15T08:28:03.183Z,51708.49
2023-05-15T08:30:32.944Z,51707.29
2023-05-15T08:33:04.551Z,51709.70
2023-05-15T08:35:36.014Z,51710.90
2023-05-15T08:38:05.969Z,51702.06
2023-05-15T08:40:40.114Z,51668.31
2023-05-15T08:43:15.376Z,51680.77
2023-05-15T08:45:46.871Z,51681.17
2023-05-15T08:48:17.919Z,51673.54
2023-05-15T08:50:49.882Z,51671.13
2023-05-15T08:53:21.301Z,51653.45
2023-05-15T08:55:51.043Z,51664.70
2023-05-15T08:58:26.356Z,51644.61
2023-05-15T09:00:57.918Z,51663.09
2023-05-15T09:03:27.680Z,51661.08
2023-05-15T09:05:59.150Z,51649.02
2023-05-15T09:08:30.655Z,51667.91
2023-05-15T09:11:02.111Z,51652.64
2023-05-15T09:13:32.439Z,51664.29
2023-05-15T09:16:03.855Z,51687.20
2023-05-15T09:18:35.309Z,51675.54
2023-05-15T09:21:27.610Z,51681.98
2023-05-15T09:24:16.671Z,51700.46
2023-05-15T09:26:48.490Z,51680.77
2023-05-15T09:29:20.542Z,51671.53
2023-05-15T09:31:52.225Z,51653.04
2023-05-15T09:34:25.030Z,51625.32
2023-05-15T09:36:56.469Z,51618.89
2023-05-15T09:39:26.375Z,51616.88
2023-05-15T09:41:58.167Z,51602.82
2023-05-15T09:44:29.822Z,51588.35
2023-05-15T09:47:01.703Z,51556.21
2023-05-15T09:49:33.523Z,51569.88
2023-05-15T09:52:04.931Z,51557.02
2023-05-15T09:54:35.448Z,51562.64
2023-05-15T09:57:13.161Z,51535.32
2023-05-15T09:59:48.099Z,51533.31
2023-05-15T10:02:28.293Z,51527.29
2023-05-15T10:05:00.410Z,51531.30
2023-05-15T10:07:32.818Z,51502.77
2023-05-15T10:10:04.580Z,51488.31
2023-05-15T10:12:36.965Z,51480.68
2023-05-15T10:15:10.052Z,51495.14
2023-05-15T10:17:41.700Z,51473.04
2023-05-15T10:20:14.595Z,51458.18
2023-05-15T10:22:50.589Z,51452.95
2023-05-15T10:25:28.163Z,51452.55
2023-05-15T10:27:59.536Z,51448.13
2023-05-15T10:30:29.304Z,51425.23
2023-05-15T10:33:00.865Z,51442.91
2023-05-15T10:35:32.495Z,51441.70
2023-05-15T10:38:04.103Z,51424.83
2023-05-15T10:40:35.557Z,51421.61
2023-05-15T10:43:07.104Z,51422.82
2023-05-15T10:45:38.610Z,51436.07
2023-05-15T10:48:12.674Z,51419.20
2023-05-15T10:50:44.221Z,51412.37
2023-05-15T10:53:16.485Z,51419.61
2023-05-15T10:55:48.115Z,51448.93
2023-05-15T10:58:20.040Z,51443.31
2023-05-15T11:00:51.596Z,51457.38
2023-05-15T11:03:48.649Z,51458.98
2023-05-15T11:06:21.028Z,51482.28
2023-05-15T11:08:52.564Z,51458.18
2023-05-15T11:11:59.105Z,51472.64
2023-05-15T11:14:30.848Z,51485.90
2023-05-15T11:17:04.194Z,51462.20
2023-05-15T11:19:37.515Z,51469.43
2023-05-15T11:22:21.060Z,51468.22
2023-05-15T11:24:54.989Z,51455.77
2023-05-15T11:27:27.389Z,51444.52
2023-05-15T11:30:16.125Z,51465.81
2023-05-15T11:32:52.139Z,51466.61
2023-05-15T11:35:25.389Z,51454.16
2023-05-15T11:37:57.851Z,51435.27
2023-05-15T11:40:31.276Z,51440.50
2023-05-15T11:43:07.998Z,51448.93
2023-05-15T11:45:40.218Z,51461.79
2023-05-15T11:48:14.425Z,51470.23
2023-05-15T11:50:46.094Z,51474.25
2023-05-15T11:53:17.692Z,51453.76
2023-05-15T11:55:49.098Z,51474.65
2023-05-15T11:58:21.669Z,51484.29
2023-05-15T12:00:53.992Z,51506.79
2023-05-15T12:03:27.699Z,51520.86
2023-05-15T12:06:00.424Z,51514.43
2023-05-15T12:08:36.475Z,51531.30
2023-05-15T12:11:07.977Z,51550.59
2023-05-15T12:13:39.658Z,51535.32
2023-05-15T12:16:11.420Z,51532.11
2023-05-15T12:18:43.048Z,51511.61
2023-05-15T12:21:14.659Z,51515.23
2023-05-15T12:24:03.523Z,51524.47
2023-05-15T12:26:38.925Z,51524.47
2023-05-15T12:29:10.346Z,51514.02
2023-05-15T12:31:41.891Z,51528.89
2023-05-15T12:34:13.650Z,51531.70
2023-05-15T12:36:46.329Z,51552.60
2023-05-15T12:39:18.293Z,51569.47
2023-05-15T12:41:54.592Z,51570.27
2023-05-15T12:44:26.208Z,51580.32
2023-05-15T12:46:56.908Z,51577.51
2023-05-15T12:49:28.404Z,51578.71
2023-05-15T12:51:58.101Z,51589.56
2023-05-15T12:54:29.556Z,51601.21
2023-05-15T12:57:02.224Z,51600.01
2023-05-15T12:59:33.736Z,51609.65
2023-05-15T13:02:03.440Z,51605.23
2023-05-15T13:04:37.252Z,51598.80
2023-05-15T13:07:09.810Z,51615.27
2023-05-15T13:09:42.320Z,51612.87
2023-05-15T13:12:14.859Z,51602.82
2023-05-15T13:14:46.915Z,51611.66
2023-05-15T13:17:18.500Z,51606.04
2023-05-15T13:19:48.210Z,51578.31
2023-05-15T13:22:19.716Z,51556.61
2023-05-15T13:24:49.525Z,51534.51
2023-05-15T13:27:21.068Z,51512.82
2023-05-15T13:29:55.104Z,51511.62
2023-05-15T13:32:26.555Z,51497.55
2023-05-15T13:34:59.018Z,51492.73
2023-05-15T13:37:30.525Z,51479.88
2023-05-15T13:40:02.211Z,51467.02
2023-05-15T13:42:33.707Z,51475.86
2023-05-15T13:45:06.187Z,51476.26
2023-05-15T13:47:39.626Z,51460.99
2023-05-15T13:50:12.940Z,51448.13
2023-05-15T13:52:45.017Z,51450.54
2023-05-15T13:55:16.493Z,51460.99
2023-05-15T13:57:48.315Z,51444.11
2023-05-15T14:00:21.730Z,51432.86
2023-05-15T14:02:53.818Z,51432.86
2023-05-15T14:05:25.257Z,51420.81
2023-05-15T14:07:55.164Z,51418.00
2023-05-15T14:10:27.067Z,51420.41
2023-05-15T14:13:00.724Z,51413.57
2023-05-15T14:15:32.547Z,51405.54
2023-05-15T14:18:02.205Z,51416.79
2023-05-15T14:20:33.646Z,51415.18
2023-05-15T14:23:04.963Z,51411.17
2023-05-15T14:25:36.527Z,51391.48
2023-05-15T14:28:07.935Z,51393.89
2023-05-15T14:30:39.326Z,51402.73
2023-05-15T14:33:09.328Z,51382.64
2023-05-15T14:35:40.755Z,51384.25
2023-05-15T14:38:12.450Z,51401.93
2023-05-15T14:40:44.118Z,51408.36
2023-05-15T14:43:15.683Z,51405.14
2023-05-15T14:45:47.184Z,51411.97
2023-05-15T14:48:18.644Z,51394.70
2023-05-15T14:50:49.955Z,51381.44
2023-05-15T14:53:21.512Z,51409.96
2023-05-15T14:55:52.924Z,51441.30
2023-05-15T14:58:25.345Z,51427.24
2023-05-15T15:00:56.862Z,51420.81
2023-05-15T15:03:29.488Z,51438.09
2023-05-15T15:06:02.765Z,51420.01
2023-05-15T15:08:34.125Z,51423.63
2023-05-15T15:11:06.490Z,51438.89
2023-05-15T15:13:38.117Z,51448.54
2023-05-15T15:16:11.145Z,51434.07
2023-05-15T15:18:43.077Z,51445.32
2023-05-15T15:21:14.977Z,51432.86
2023-05-15T15:23:46.551Z,51433.67
2023-05-15T15:26:18.129Z,51423.22
2023-05-15T15:28:49.697Z,51426.43
2023-05-15T15:31:22.130Z,51415.59
2023-05-15T15:33:53.572Z,51419.21
2023-05-15T15:36:25.891Z,51424.43
2023-05-15T15:38:57.888Z,51424.43
2023-05-15T15:41:29.818Z,51421.62
2023-05-15T15:44:01.636Z,51434.07
2023-05-15T15:46:33.067Z,51441.70
2023-05-15T15:49:04.473Z,51454.56
2023-05-15T15:51:38.007Z,51453.35
2023-05-15T15:54:09.413Z,51451.75
2023-05-15T15:56:39.078Z,51457.77
2023-05-15T15:59:10.765Z,51472.64
2023-05-15T16:01:42.288Z,51483.09
2023-05-15T16:04:13.946Z,51485.10
2023-05-15T16:06:45.858Z,51514.02
2023-05-15T16:09:15.562Z,51512.02
2023-05-15T16:11:47.101Z,51514.43
2023-05-15T16:14:18.896Z,51532.91
2023-05-15T16:16:50.345Z,51533.31
2023-05-15T16:19:21.982Z,51556.61
2023-05-15T16:21:53.897Z,51572.29
2023-05-15T16:24:25.727Z,51569.47
2023-05-15T16:26:57.467Z,51563.45
2023-05-15T16:29:29.439Z,51583.93
2023-05-15T16:32:01.799Z,51597.20
2023-05-15T16:34:34.687Z,51597.60
2023-05-15T16:37:06.655Z,51603.63
2023-05-15T16:39:39.854Z,51631.35
2023-05-15T16:42:12.113Z,51640.19
2023-05-15T16:44:43.829Z,51630.95
2023-05-15T16:47:15.187Z,51653.84
2023-05-15T16:49:49.114Z,51650.63
2023-05-15T16:52:21.570Z,51666.71
2023-05-15T16:54:52.942Z,51665.50
2023-05-15T16:57:24.355Z,51672.34
2023-05-15T16:59:55.713Z,51692.02
2023-05-15T17:02:27.155Z,51689.21
2023-05-15T17:04:57.043Z,51708.09
2023-05-15T17:07:29.073Z,51700.05
2023-05-15T17:09:59.054Z,51696.44
2023-05-15T17:12:30.864Z,51708.50
2023-05-15T17:15:00.859Z,51720.15
2023-05-15T17:17:32.577Z,51723.76
2023-05-15T17:20:03.242Z,51722.16
2023-05-15T17:22:34.996Z,51742.65
2023-05-15T17:25:07.432Z,51730.59
2023-05-15T17:27:41.615Z,51744.26
2023-05-15T17:30:14.345Z,51749.88
2023-05-15T17:32:45.853Z,51736.62
2023-05-15T17:35:17.783Z,51745.46
2023-05-15T17:37:49.205Z,51753.50
2023-05-15T17:40:20.867Z,51752.70
2023-05-15T17:42:52.463Z,51763.54
2023-05-15T17:45:24.396Z,51767.56
2023-05-15T17:48:02.783Z,51770.37
2023-05-15T17:50:38.192Z,51767.56
2023-05-15T17:53:10.011Z,51769.98
2023-05-15T17:55:40.053Z,51784.43
2023-05-15T17:58:11.970Z,51780.42
2023-05-15T18:00:43.351Z,51779.21
2023-05-15T18:03:15.042Z,51781.22
2023-05-15T18:05:47.782Z,51777.61
2023-05-15T18:08:19.429Z,51779.62
2023-05-15T18:10:49.240Z,51785.64
2023-05-15T18:13:20.681Z,51786.04
2023-05-15T18:15:52.192Z,51777.61
2023-05-15T18:18:23.084Z,51778.41
2023-05-15T18:20:54.564Z,51787.65
2023-05-15T18:23:26.038Z,51780.82
2023-05-15T18:25:57.395Z,51782.83
2023-05-15T18:28:29.250Z,51790.06
2023-05-15T18:31:00.842Z,51794.48
2023-05-15T18:33:30.832Z,51778.41
2023-05-15T18:36:02.498Z,51784.84
2023-05-15T18:38:34.634Z,51775.59
2023-05-15T18:41:06.803Z,51805.73
2023-05-15T18:43:38.248Z,51794.48
2023-05-15T18:46:10.061Z,51796.89
2023-05-15T18:48:41.451Z,51796.89
2023-05-15T18:51:13.722Z,51804.13
2023-05-15T18:53:45.061Z,51796.89
2023-05-15T18:56:16.529Z,51795.29
2023-05-15T18:58:50.090Z,51812.16
2023-05-15T19:01:22.304Z,51796.89
2023-05-15T19:03:53.985Z,51817.79
2023-05-15T19:06:25.369Z,51813.37
2023-05-15T19:08:56.835Z,51802.52
2023-05-15T19:11:28.672Z,51812.57
2023-05-15T19:14:00.264Z,51804.93
2023-05-15T19:16:32.345Z,51818.99
2023-05-15T19:19:03.765Z,51826.63
2023-05-15T19:21:35.571Z,51822.61
2023-05-15T19:24:07.398Z,51826.63
2023-05-15T19:26:38.866Z,51835.87
2023-05-15T19:29:10.329Z,51831.45
2023-05-15T19:31:41.819Z,51827.43
2023-05-15T19:34:13.798Z,51836.67
2023-05-15T19:36:46.816Z,51831.05
2023-05-15T19:39:18.263Z,51840.69
2023-05-15T19:41:49.631Z,51837.07
2023-05-15T19:44:21.010Z,51833.05
2023-05-15T19:46:53.934Z,51846.72
2023-05-15T19:49:26.073Z,51841.90
2023-05-15T19:51:57.425Z,51855.56
2023-05-15T19:54:29.050Z,51839.49
2023-05-15T19:56:58.853Z,51851.95
2023-05-15T19:59:30.338Z,51845.11
2023-05-15T20:02:03.091Z,51847.12
2023-05-15T20:04:34.894Z,51847.93
2023-05-15T20:07:06.511Z,51861.99
2023-05-15T20:09:39.386Z,51851.54
2023-05-15T20:12:11.275Z,51843.91
2023-05-15T20:14:42.227Z,51841.49
2023-05-15T20:17:13.519Z,51842.70
2023-05-15T20:19:44.984Z,51849.13
2023-05-15T20:22:16.360Z,51843.50
2023-05-15T20:24:48.337Z,51852.75
2023-05-15T20:27:20.204Z,51853.15
2023-05-15T20:29:51.673Z,51851.14
2023-05-15T20:32:23.147Z,51847.12
2023-05-15T20:34:56.170Z,51845.91
2023-05-15T20:37:28.189Z,51855.96
2023-05-15T20:40:00.538Z,51842.30
2023-05-15T20:42:32.655Z,51859.18
2023-05-15T20:45:05.437Z,51850.73
2023-05-15T20:47:36.937Z,51838.28
2023-05-15T20:50:09.742Z,51842.30
2023-05-15T20:52:41.052Z,51849.53
2023-05-15T20:55:16.464Z,51860.38
2023-05-15T20:57:48.129Z,51853.95
2023-05-15T21:00:18.509Z,51875.65
2023-05-15T21:02:49.991Z,51865.61
2023-05-15T21:05:21.600Z,51872.84
2023-05-15T21:07:53.261Z,51874.45
2023-05-15T21:10:24.946Z,51870.02
2023-05-15T21:12:59.088Z,51878.06
2023-05-15T21:15:30.917Z,51870.43
2023-05-15T21:18:02.289Z,51872.43
2023-05-15T21:20:35.164Z,51885.29
2023-05-15T21:23:06.834Z,51873.64
2023-05-15T21:25:38.172Z,51874.04
2023-05-15T21:28:09.635Z,51878.46
2023-05-15T21:30:41.352Z,51891.32
2023-05-15T21:33:11.039Z,51893.33
2023-05-15T21:35:42.465Z,51897.75
2023-05-15T21:38:13.813Z,51909.40
2023-05-15T21:40:45.777Z,51907.80
2023-05-15T21:43:17.116Z,51902.57
2023-05-15T21:45:48.423Z,51907.79
2023-05-15T21:48:19.772Z,51902.98
2023-05-15T21:50:51.121Z,51899.36
2023-05-15T21:53:22.990Z,51911.01
2023-05-15T21:56:04.082Z,51900.16
2023-05-15T21:58:35.564Z,51909.41
2023-05-15T22:01:07.285Z,51930.30
2023-05-15T22:03:38.675Z,51903.38
2023-05-15T22:06:10.332Z,51911.01
2023-05-15T22:08:41.706Z,51923.87
2023-05-15T22:11:14.190Z,51930.30
2023-05-15T22:13:45.534Z,51927.09
2023-05-15T22:16:17.125Z,51916.23
2023-05-15T22:18:48.863Z,51920.65
2023-05-15T22:21:18.651Z,51928.70
2023-05-15T22:23:50.045Z,51923.87
2023-05-15T22:26:21.872Z,51929.90
2023-05-15T22:28:56.697Z,51909.41
2023-05-15T22:31:28.633Z,51907.39
2023-05-15T22:34:00.036Z,51932.31
2023-05-15T22:36:32.319Z,51919.45
2023-05-15T22:39:04.451Z,51913.82
2023-05-15T22:41:36.101Z,51925.48
2023-05-15T22:44:07.567Z,51931.91
2023-05-15T22:46:38.994Z,51919.85
2023-05-15T22:49:19.377Z,51931.50
2023-05-15T22:51:50.920Z,51942.76
2023-05-15T22:54:23.316Z,51937.93
2023-05-15T22:56:55.298Z,51932.71
2023-05-15T22:59:26.691Z,51918.64
2023-05-15T23:01:58.263Z,51915.43
2023-05-15T23:04:29.895Z,51942.36
2023-05-15T23:06:59.649Z,51938.74
2023-05-15T23:09:31.014Z,51951.60
2023-05-15T23:12:02.500Z,51933.92
2023-05-15T23:14:34.476Z,51952.40
2023-05-15T23:17:06.035Z,51937.93
2023-05-15T23:19:37.395Z,51942.76
2023-05-15T23:22:08.836Z,51949.59
2023-05-15T23:24:40.298Z,51931.50
2023-05-15T23:27:11.736Z,51927.89
2023-05-15T23:29:43.355Z,51939.95
2023-05-15T23:32:14.875Z,51939.54
2023-05-15T23:34:46.597Z,51965.66
2023-05-15T23:37:18.093Z,51946.77
2023-05-15T23:39:49.434Z,51953.61
2023-05-15T23:42:20.913Z,51966.06
2023-05-15T23:44:52.305Z,51946.77
2023-05-15T23:47:23.835Z,51941.95
2023-05-15T23:49:55.307Z,51956.82
2023-05-15T23:52:26.712Z,51950.79
2023-05-15T23:54:58.093Z,51960.44
2023-05-15T23:57:29.518Z,51951.60
